Ava, Illinois
Current Conditions -  °F | °C
As of 3:52 AM on Friday 21 Nov 2014 (Local Time) from KMDH Reporting Station
Clear Clear  
Wind Chill: 20°   Ceiling: Unl
Heat Index: 20°   Visibility: 9mi
Dew Point: 16°   Wind: 0mph
Humidity: 85%   Direction: NA
Pressure: 30.38"   Gusts: NA
Location:  37.89°N, 89.49°W
Report Text: KMDH 210952Z AUTO 00000KT 9SM CLR M07/M09 A3038 RMK AO2 SLP293 I1000 T10671089
Loading
Personal Weather Stations






























Interactive Weather Map New forecast layout! Learn more

10-Day Weather Forecast

Advertisements
Track Severe Weather on mobile